Time;durP1;ratioP1;P1;durP2;ratioP2;P2;SDS_P1;SDS_P2;PMS_P1;PMS_P2;Temp;Humidity;BMP_temperature;BMP_pressure;BME280_temperature;BME280_humidity;BME280_pressure;Samples;Min_cycle;Max_cycle;Signal;HPM_P1;HPM_P2
2023/07/07 00:01:14;;;;;;;;;;;;;;;20.17;48.22;101818.06;5138450;27;19941;-58
2023/07/07 00:03:42;;;;;;;;;;;;;;;20.15;48.25;101812.03;5148638;27;19923;-59
2023/07/07 00:06:10;;;;;;;;;;;;;;;20.13;48.21;101816.94;5147849;27;19919;-58
2023/07/07 00:08:38;;;;;;;;;;;;;;;20.12;48.29;101820.75;5154668;27;20379;-59
2023/07/07 00:11:05;;;;;;;;;;;;;;;20.10;48.31;101820.19;5141283;27;19923;-59
2023/07/07 00:13:33;;;;;;;;;;;;;;;20.09;48.37;101815.81;5149154;27;19954;-59
2023/07/07 00:16:01;;;;;;;;;;;;;;;20.07;48.38;101824.28;5141676;27;19920;-59
2023/07/07 00:18:30;;;;;;;;;;;;;;;20.05;48.30;101823.72;5147129;27;20006;-59
2023/07/07 00:20:59;;;;;;;;;;;;;;;20.03;48.25;101820.41;5146636;27;19919;-58
2023/07/07 00:23:29;;;;;;;;;;;;;;;20.00;48.33;101820.94;5144161;27;19965;-59
2023/07/07 00:25:57;;;;;;;;;;;;;;;20.00;48.45;101826.41;5145054;27;19920;-59
2023/07/07 00:28:25;;;;;;;;;;;;;;;19.99;48.33;101824.75;5145397;27;19923;-58
2023/07/07 00:30:53;;;;;;;;;;;;;;;19.97;48.35;101824.19;5147098;27;19920;-59
2023/07/07 00:33:20;;;;;;;;;;;;;;;19.96;48.47;101830.72;5147013;27;19942;-59
2023/07/07 00:35:49;;;;;;;;;;;;;;;19.95;48.42;101834.53;5137353;27;19945;-59
2023/07/07 00:38:17;;;;;;;;;;;;;;;19.94;48.30;101826.63;5146938;27;19920;-59
2023/07/07 00:40:45;;;;;;;;;;;;;;;19.92;48.42;101824.16;5151009;27;19927;-59
2023/07/07 00:43:13;;;;;;;;;;;;;;;19.92;48.30;101826.06;5137868;27;19932;-58
2023/07/07 00:45:41;;;;;;;;;;;;;;;19.90;48.49;101826.31;5155666;27;20352;-58
2023/07/07 00:48:11;;;;;;;;;;;;;;;19.89;48.38;101827.41;5146356;27;19919;-58
2023/07/07 00:50:41;;;;;;;;;;;;;;;19.87;48.41;101829.56;5142942;27;19931;-58
2023/07/07 00:53:10;;;;;;;;;;;;;;;19.87;48.41;101826.00;5146065;27;20336;-59
2023/07/07 00:55:41;;;;;;;;;;;;;;;19.85;48.46;101814.53;5143183;27;20022;-58
2023/07/07 00:58:09;;;;;;;;;;;;;;;19.82;48.56;101818.63;5150285;27;20367;-59
2023/07/07 01:00:39;;;;;;;;;;;;;;;19.81;48.49;101815.06;5143358;27;19919;-57
2023/07/07 01:03:10;;;;;;;;;;;;;;;19.79;48.51;101819.94;5146306;27;19938;-59
2023/07/07 01:05:38;;;;;;;;;;;;;;;19.78;48.62;101828.41;5149445;27;19963;-59
2023/07/07 01:08:06;;;;;;;;;;;;;;;19.77;48.63;101829.47;5144453;27;20414;-59
2023/07/07 01:10:36;;;;;;;;;;;;;;;19.73;48.66;101823.72;5154933;27;19955;-59
2023/07/07 01:13:04;;;;;;;;;;;;;;;19.72;48.70;101827.53;5143310;27;19920;-58
2023/07/07 01:15:35;;;;;;;;;;;;;;;19.71;48.65;101834.06;5135839;27;19931;-58
2023/07/07 01:18:18;;;;;;;;;;;;;;;19.68;48.77;101825.56;5146026;27;19919;-59
2023/07/07 01:21:00;;;;;;;;;;;;;;;19.66;48.81;101827.75;5142858;27;19920;-58
2023/07/07 01:23:40;;;;;;;;;;;;;;;19.65;48.76;101826.91;5140297;27;19927;-58
2023/07/07 01:26:22;;;;;;;;;;;;;;;19.63;48.76;101828.25;5147068;27;20121;-58
2023/07/07 01:29:03;;;;;;;;;;;;;;;19.61;48.97;101827.69;5144310;27;19988;-59
2023/07/07 01:31:40;;;;;;;;;;;;;;;19.59;48.90;101822.50;5140458;27;19941;-58
2023/07/07 01:34:08;;;;;;;;;;;;;;;19.56;48.86;101820.28;5140514;27;20031;-58
2023/07/07 01:36:36;;;;;;;;;;;;;;;19.57;49.09;101821.94;5138609;27;19919;-58
2023/07/07 01:39:04;;;;;;;;;;;;;;;19.54;48.85;101821.63;5140976;27;19979;-59
2023/07/07 01:41:35;;;;;;;;;;;;;;;19.52;48.88;101821.88;5145599;27;20345;-59
2023/07/07 01:44:07;;;;;;;;;;;;;;;19.51;49.11;101822.94;5138845;27;19924;-59
2023/07/07 01:46:39;;;;;;;;;;;;;;;19.50;48.94;101818.56;5129317;27;19927;-59
2023/07/07 01:49:10;;;;;;;;;;;;;;;19.48;48.97;101824.25;5140698;27;19919;-59
2023/07/07 01:51:43;;;;;;;;;;;;;;;19.47;49.01;101822.63;5136188;27;20444;-59
2023/07/07 01:54:12;;;;;;;;;;;;;;;19.45;48.99;101822.06;5141390;27;19920;-59
2023/07/07 01:56:40;;;;;;;;;;;;;;;19.43;49.05;101818.75;5141565;27;20315;-59
2023/07/07 01:59:08;;;;;;;;;;;;;;;19.41;49.11;101818.19;5138590;27;19927;-58
2023/07/07 02:01:37;;;;;;;;;;;;;;;19.40;48.98;101813.81;5135978;27;20284;-59
2023/07/07 02:04:05;;;;;;;;;;;;;;;19.38;48.95;101817.88;5125932;28;19919;-59
2023/07/07 02:06:32;;;;;;;;;;;;;;;19.38;49.20;101815.97;5143953;28;20000;-58
2023/07/07 02:09:00;;;;;;;;;;;;;;;19.36;49.10;101809.13;5134105;27;19988;-58
2023/07/07 02:11:28;;;;;;;;;;;;;;;19.35;49.13;101807.50;5144350;27;19941;-59
2023/07/07 02:13:55;;;;;;;;;;;;;;;19.34;48.99;101814.84;5142727;27;20316;-59
2023/07/07 02:16:23;;;;;;;;;;;;;;;19.32;49.16;101808.00;5132677;27;19968;-59
2023/07/07 02:18:52;;;;;;;;;;;;;;;19.31;49.07;101820.00;5140056;27;19941;-59
2023/07/07 02:21:20;;;;;;;;;;;;;;;19.30;49.10;101811.00;5142466;27;19923;-59
2023/07/07 02:23:47;;;;;;;;;;;;;;;19.29;49.14;101812.06;5134557;27;19938;-58
2023/07/07 02:26:18;;;;;;;;;;;;;;;19.28;49.26;101815.06;5137784;27;19920;-59
2023/07/07 02:28:45;;;;;;;;;;;;;;;19.26;49.10;101809.03;5137345;27;20314;-58
2023/07/07 02:31:13;;;;;;;;;;;;;;;19.25;49.28;101815.56;5133747;27;19919;-59
2023/07/07 02:33:41;;;;;;;;;;;;;;;19.22;49.16;101811.44;5137520;27;19926;-59
2023/07/07 02:36:11;;;;;;;;;;;;;;;19.21;49.41;101817.97;5144254;27;19975;-60
2023/07/07 02:38:39;;;;;;;;;;;;;;;19.20;49.24;101819.06;5141151;27;19919;-60
2023/07/07 02:41:06;;;;;;;;;;;;;;;19.18;49.36;101813.84;5139238;27;19926;-59
2023/07/07 02:43:34;;;;;;;;;;;;;;;19.17;49.21;101825.84;5134690;27;19930;-59
2023/07/07 02:46:02;;;;;;;;;;;;;;;19.16;49.26;101823.38;5132153;27;19976;-59
2023/07/07 02:48:29;;;;;;;;;;;;;;;19.14;49.38;101820.06;5136755;27;19919;-59
2023/07/07 02:50:57;;;;;;;;;;;;;;;19.14;49.31;101823.63;5145843;27;19920;-58
2023/07/07 02:53:27;;;;;;;;;;;;;;;19.12;49.40;101823.06;5147664;27;19964;-59
2023/07/07 02:55:55;;;;;;;;;;;;;;;19.10;49.35;101825.22;5145373;27;19927;-59
2023/07/07 02:58:23;;;;;;;;;;;;;;;19.09;49.49;101830.91;5141126;27;20348;-59
2023/07/07 03:00:51;;;;;;;;;;;;;;;19.08;49.49;101830.09;5144291;27;20276;-58
2023/07/07 03:03:19;;;;;;;;;;;;;;;19.06;49.63;101832.28;5140857;27;19962;-58
2023/07/07 03:05:47;;;;;;;;;;;;;;;19.05;49.61;101824.34;5144237;27;19924;-58
2023/07/07 03:08:15;;;;;;;;;;;;;;;19.02;49.59;101831.13;5145973;27;19975;-58
2023/07/07 03:10:44;;;;;;;;;;;;;;;19.02;49.83;101841.22;5146457;27;19950;-59
2023/07/07 03:13:12;;;;;;;;;;;;;;;19.01;49.68;101842.28;5146307;27;19970;-58
2023/07/07 03:15:40;;;;;;;;;;;;;;;18.97;49.62;101839.25;5136652;27;19982;-58
2023/07/07 03:18:08;;;;;;;;;;;;;;;18.96;49.54;101836.78;5148064;27;19926;-59
2023/07/07 03:20:36;;;;;;;;;;;;;;;18.95;49.67;101840.59;5144765;27;19919;-58
2023/07/07 03:23:04;;;;;;;;;;;;;;;18.93;49.64;101834.56;5149696;27;19927;-59
2023/07/07 03:25:31;;;;;;;;;;;;;;;18.92;49.82;101841.09;5147923;27;19919;-59
2023/07/07 03:28:00;;;;;;;;;;;;;;;18.90;49.84;101840.53;5147973;27;19923;-59
2023/07/07 03:30:29;;;;;;;;;;;;;;;18.89;49.85;101841.59;5148752;27;19920;-59
2023/07/07 03:32:56;;;;;;;;;;;;;;;18.86;49.72;101840.19;5144579;27;19920;-59
2023/07/07 03:35:24;;;;;;;;;;;;;;;18.86;50.01;101842.94;5150718;27;20421;-59
2023/07/07 03:37:51;;;;;;;;;;;;;;;18.85;50.02;101849.44;5144714;27;19927;-59
2023/07/07 03:40:19;;;;;;;;;;;;;;;18.82;49.79;101836.34;5156134;27;19919;-58
2023/07/07 03:42:47;;;;;;;;;;;;;;;18.81;49.77;101842.84;5149792;27;20033;-58
2023/07/07 03:45:16;;;;;;;;;;;;;;;18.79;49.78;101840.38;5149656;27;20291;-58
2023/07/07 03:47:44;;;;;;;;;;;;;;;18.77;49.91;101836.28;5146139;27;19996;-59
2023/07/07 03:50:11;;;;;;;;;;;;;;;18.76;49.90;101840.88;5149552;27;19971;-58
2023/07/07 03:52:39;;;;;;;;;;;;;;;18.75;50.17;101844.69;5144981;27;19941;-59
2023/07/07 03:55:07;;;;;;;;;;;;;;;18.75;49.95;101843.88;5144554;27;20281;-59
2023/07/07 03:57:34;;;;;;;;;;;;;;;18.73;50.22;101835.13;5147288;27;19926;-59
2023/07/07 04:00:03;;;;;;;;;;;;;;;18.71;50.18;101829.94;5142738;27;19919;-60
2023/07/07 04:02:32;;;;;;;;;;;;;;;18.69;50.18;101832.09;5139882;27;19926;-58
2023/07/07 04:04:59;;;;;;;;;;;;;;;18.69;50.06;101842.16;5142200;27;19988;-58
2023/07/07 04:07:27;;;;;;;;;;;;;;;18.68;50.01;101845.94;5144679;27;19947;-58
2023/07/07 04:09:55;;;;;;;;;;;;;;;18.67;49.89;101836.13;5133313;27;19928;-59
2023/07/07 04:12:22;;;;;;;;;;;;;;;18.66;50.25;101838.03;5146691;27;19934;-58
2023/07/07 04:14:50;;;;;;;;;;;;;;;18.66;50.16;101848.09;5135492;27;19919;-58
2023/07/07 04:17:18;;;;;;;;;;;;;;;18.65;50.12;101846.44;5140129;27;19940;-58
2023/07/07 04:19:46;;;;;;;;;;;;;;;18.64;50.33;101851.06;5134336;27;20313;-58
2023/07/07 04:22:14;;;;;;;;;;;;;;;18.64;50.26;101847.53;5142521;27;19920;-59
2023/07/07 04:24:42;;;;;;;;;;;;;;;18.63;50.36;101848.59;5146840;27;19938;-59
2023/07/07 04:27:09;;;;;;;;;;;;;;;18.62;49.97;101844.22;5143903;27;19954;-58
2023/07/07 04:29:37;;;;;;;;;;;;;;;18.60;50.30;101858.06;5144383;27;19920;-58
2023/07/07 04:32:05;;;;;;;;;;;;;;;18.60;50.46;101851.78;5126594;27;19923;-58
2023/07/07 04:34:33;;;;;;;;;;;;;;;18.61;50.40;101853.47;5139944;27;19920;-59
2023/07/07 04:37:02;;;;;;;;;;;;;;;18.59;50.38;101855.59;5146783;27;19919;-59
2023/07/07 04:39:29;;;;;;;;;;;;;;;18.57;50.29;101850.41;5138912;27;19923;-59
2023/07/07 04:41:57;;;;;;;;;;;;;;;18.56;50.60;101848.75;5139816;27;19919;-59
2023/07/07 04:44:24;;;;;;;;;;;;;;;18.56;50.38;101851.47;5137309;27;19930;-58
2023/07/07 04:46:52;;;;;;;;;;;;;;;18.56;50.62;101859.63;5132415;27;19920;-58
2023/07/07 04:49:21;;;;;;;;;;;;;;;18.55;50.59;101852.53;5136301;27;19945;-58
2023/07/07 04:51:49;;;;;;;;;;;;;;;18.53;50.45;101852.78;5130394;27;19959;-58
2023/07/07 04:54:18;;;;;;;;;;;;;;;18.53;50.41;101849.25;5147377;27;20283;-57
2023/07/07 04:56:45;;;;;;;;;;;;;;;18.53;50.45;101851.97;5134410;27;19920;-58
2023/07/07 04:59:13;;;;;;;;;;;;;;;18.52;50.44;101856.59;5132195;27;19919;-58
2023/07/07 05:01:41;;;;;;;;;;;;;;;18.52;50.62;101850.31;5147093;27;19919;-59
2023/07/07 05:04:10;;;;;;;;;;;;;;;18.52;50.59;101856.59;5132577;27;19919;-58
2023/07/07 05:06:38;;;;;;;;;;;;;;;18.52;50.39;101853.88;5142632;27;19919;-59
2023/07/07 05:09:07;;;;;;;;;;;;;;;18.52;50.58;101848.44;5134680;27;20425;-59
2023/07/07 05:11:36;;;;;;;;;;;;;;;18.53;50.28;101852.78;5142261;27;19924;-59
2023/07/07 05:14:04;;;;;;;;;;;;;;;18.52;50.33;101853.88;5135143;27;19945;-59
2023/07/07 05:16:32;;;;;;;;;;;;;;;18.54;50.47;101859.88;5136253;27;19972;-59
2023/07/07 05:19:00;;;;;;;;;;;;;;;18.56;50.45;101856.09;5141132;27;19966;-59
2023/07/07 05:21:28;;;;;;;;;;;;;;;18.57;50.78;101860.47;5136475;27;19919;-59
2023/07/07 05:23:56;;;;;;;;;;;;;;;18.59;50.74;101852.88;5132426;27;19927;-59
2023/07/07 05:26:27;;;;;;;;;;;;;;;18.62;50.69;101858.66;5140433;27;19926;-58
2023/07/07 05:28:57;;;;;;;;;;;;;;;18.65;50.76;101857.34;5131747;27;19923;-59
2023/07/07 05:31:24;;;;;;;;;;;;;;;18.66;50.59;101864.44;5141600;27;20103;-60
2023/07/07 05:33:52;;;;;;;;;;;;;;;18.67;50.87;101856.00;5137375;27;19920;-59
2023/07/07 05:36:20;;;;;;;;;;;;;;;18.71;50.85;101853.63;5134826;27;19927;-58
2023/07/07 05:38:47;;;;;;;;;;;;;;;18.74;50.71;101853.94;5145538;27;19941;-58
2023/07/07 05:41:15;;;;;;;;;;;;;;;18.77;50.94;101860.78;5139481;27;19927;-58
2023/07/07 05:43:42;;;;;;;;;;;;;;;18.79;51.13;101866.81;4788773;27;10000595;-58
2023/07/07 05:46:12;;;;;;;;;;;;;;;18.82;51.09;101871.75;5146387;27;19968;-59
2023/07/07 05:48:41;;;;;;;;;;;;;;;18.84;51.08;101861.41;5143660;27;19941;-60
2023/07/07 05:51:09;;;;;;;;;;;;;;;18.87;50.82;101857.38;5137981;27;19986;-57
2023/07/07 05:53:40;;;;;;;;;;;;;;;18.88;50.81;101864.47;5138990;27;19919;-59
2023/07/07 05:56:12;;;;;;;;;;;;;;;18.91;50.89;101862.06;5141496;27;20342;-58
2023/07/07 05:58:39;;;;;;;;;;;;;;;18.93;51.15;101864.53;5132532;27;19919;-58
2023/07/07 06:01:13;;;;;;;;;;;;;;;18.94;51.02;101856.09;5132302;27;19920;-58
2023/07/07 06:03:43;;;;;;;;;;;;;;;18.97;51.13;101866.50;5127936;28;19919;-58
2023/07/07 06:06:12;;;;;;;;;;;;;;;18.99;50.88;101872.50;5129706;28;19945;-57
2023/07/07 06:08:40;;;;;;;;;;;;;;;19.02;50.94;101865.75;5146106;27;19919;-57
2023/07/07 06:11:08;;;;;;;;;;;;;;;19.05;51.09;101868.78;5143786;27;19928;-57
2023/07/07 06:13:35;;;;;;;;;;;;;;;19.08;50.88;101872.88;5137159;28;19927;-58
2023/07/07 06:16:05;;;;;;;;;;;;;;;19.11;51.11;101877.81;5144042;28;19930;-57
2023/07/07 06:18:33;;;;;;;;;;;;;;;19.13;51.02;101862.84;5145915;28;19942;-57
2023/07/07 06:21:02;;;;;;;;;;;;;;;19.16;51.00;101862.34;5137213;27;19925;-58
2023/07/07 06:23:30;;;;;;;;;;;;;;;19.19;50.86;101866.47;5142328;28;19920;-57
2023/07/07 06:25:58;;;;;;;;;;;;;;;19.23;50.85;101861.31;5141755;28;19926;-57
2023/07/07 06:28:26;;;;;;;;;;;;;;;19.26;50.74;101864.38;5128199;28;20004;-57
2023/07/07 06:30:54;;;;;;;;;;;;;;;19.28;50.86;101864.13;5135897;28;19919;-57
2023/07/07 06:33:22;;;;;;;;;;;;;;;19.31;50.92;101867.16;5128657;28;19923;-57
2023/07/07 06:35:50;;;;;;;;;;;;;;;19.34;50.73;101869.38;5134761;27;19919;-57
2023/07/07 06:38:19;;;;;;;;;;;;;;;19.38;50.70;101875.97;5144398;27;20351;-57
2023/07/07 06:40:47;;;;;;;;;;;;;;;19.39;50.96;101874.88;5142127;27;19964;-58
2023/07/07 06:43:17;;;;;;;;;;;;;;;19.43;50.83;101877.91;5143580;27;19931;-57
2023/07/07 06:45:46;;;;;;;;;;;;;;;19.45;50.83;101884.75;5145723;27;19972;-57
2023/07/07 06:48:14;;;;;;;;;;;;;;;19.48;50.83;101886.16;5142955;27;19945;-57
2023/07/07 06:50:42;;;;;;;;;;;;;;;19.49;50.68;101875.00;5154883;27;19919;-58
2023/07/07 06:53:10;;;;;;;;;;;;;;;19.52;50.77;101881.88;5142574;27;19944;-58
2023/07/07 06:55:40;;;;;;;;;;;;;;;19.52;50.72;101876.41;5149930;27;19945;-56
2023/07/07 06:58:08;;;;;;;;;;;;;;;19.52;50.85;101890.03;5144177;27;19919;-57
2023/07/07 07:00:36;;;;;;;;;;;;;;;19.53;51.13;101888.16;5149516;27;19920;-56
2023/07/07 07:03:03;;;;;;;;;;;;;;;19.50;50.86;101894.91;5148146;27;19924;-57
2023/07/07 07:05:31;;;;;;;;;;;;;;;19.48;50.90;101884.25;5144683;27;19921;-57
2023/07/07 07:07:59;;;;;;;;;;;;;;;19.48;51.17;101889.69;5139579;27;19919;-56
2023/07/07 07:10:26;;;;;;;;;;;;;;;19.46;51.11;101891.88;5141840;27;20308;-58
2023/07/07 07:12:55;;;;;;;;;;;;;;;19.45;51.37;101886.66;5149648;27;19927;-57
2023/07/07 07:15:23;;;;;;;;;;;;;;;19.44;51.62;101885.03;5148448;27;20364;-57
2023/07/07 07:17:50;;;;;;;;;;;;;;;19.44;51.75;101887.75;5143180;27;19942;-57
2023/07/07 07:20:18;;;;;;;;;;;;;;;19.45;51.63;101897.56;5143322;27;19973;-56
2023/07/07 07:22:46;;;;;;;;;;;;;;;19.45;51.48;101889.41;5141800;27;20006;-57
2023/07/07 07:25:14;;;;;;;;;;;;;;;19.45;51.39;101892.13;5142507;27;19926;-57
2023/07/07 07:27:42;;;;;;;;;;;;;;;19.43;51.34;101891.56;5140974;27;20372;-58
2023/07/07 07:30:14;;;;;;;;;;;;;;;19.43;51.57;101897.00;5148506;27;19968;-57
2023/07/07 07:32:42;;;;;;;;;;;;;;;19.43;51.92;101891.56;5141713;27;19919;-57
2023/07/07 07:35:10;;;;;;;;;;;;;;;19.43;51.42;101892.38;5148362;27;19930;-57
2023/07/07 07:37:38;;;;;;;;;;;;;;;19.42;51.41;101890.72;5144586;27;19919;-57
2023/07/07 07:40:08;;;;;;;;;;;;;;;19.42;51.55;101900.81;5146774;27;20000;-57
2023/07/07 07:42:36;;;;;;;;;;;;;;;19.41;51.57;101899.97;5143811;27;19919;-58
2023/07/07 07:45:04;;;;;;;;;;;;;;;19.42;51.46;101896.19;5148507;27;19926;-57
2023/07/07 07:47:34;;;;;;;;;;;;;;;19.45;52.04;101892.13;5143747;27;19941;-56
2023/07/07 07:50:02;;;;;;;;;;;;;;;19.46;51.80;101897.31;5147187;27;20014;-57
2023/07/07 07:52:31;;;;;;;;;;;;;;;19.45;51.72;101894.84;5141665;27;20014;-57
2023/07/07 07:54:58;;;;;;;;;;;;;;;19.45;51.54;101897.56;5147867;27;20038;-58
2023/07/07 07:57:26;;;;;;;;;;;;;;;19.45;51.74;101895.66;5130006;27;19920;-57
2023/07/07 07:59:54;;;;;;;;;;;;;;;19.46;51.87;101891.03;5133243;27;19964;-58
2023/07/07 08:02:21;;;;;;;;;;;;;;;19.47;51.71;101895.41;5143865;27;19940;-58
2023/07/07 08:04:50;;;;;;;;;;;;;;;19.48;51.74;101897.06;5159031;27;19954;-58
2023/07/07 08:07:18;;;;;;;;;;;;;;;19.47;51.77;101896.22;4788524;27;10000679;-58
2023/07/07 08:09:45;;;;;;;;;;;;;;;19.49;51.93;101904.16;5151854;27;19957;-58
2023/07/07 08:12:13;;;;;;;;;;;;;;;19.49;51.94;101898.72;5147837;27;19926;-57
2023/07/07 08:14:41;;;;;;;;;;;;;;;19.50;51.64;101895.72;5146171;27;19931;-60
2023/07/07 08:17:09;;;;;;;;;;;;;;;19.52;51.94;101900.13;5153669;27;19953;-57
2023/07/07 08:19:38;;;;;;;;;;;;;;;19.53;51.81;101899.06;5147659;27;19919;-57
2023/07/07 08:22:09;;;;;;;;;;;;;;;19.54;52.23;101898.78;5130783;27;19926;-58
2023/07/07 08:24:37;;;;;;;;;;;;;;;19.56;52.47;101899.38;5139706;27;20336;-57
2023/07/07 08:27:05;;;;;;;;;;;;;;;19.58;52.33;101901.84;5144614;27;19930;-57
2023/07/07 08:29:36;;;;;;;;;;;;;;;19.60;52.43;101900.50;5143853;27;19940;-59
2023/07/07 08:32:04;;;;;;;;;;;;;;;19.63;52.35;101899.16;5145489;27;20241;-58
2023/07/07 08:34:31;;;;;;;;;;;;;;;19.64;52.46;101898.91;5132086;27;19920;-59
2023/07/07 08:37:17;;;;;;;;;;;;;;;19.67;52.55;101892.94;5130015;27;19923;-59
2023/07/07 08:39:45;;;;;;;;;;;;;;;19.68;52.62;101900.03;5147316;27;20363;-59
2023/07/07 08:42:20;;;;;;;;;;;;;;;19.73;52.76;101893.81;5144030;27;19969;-58
2023/07/07 08:44:48;;;;;;;;;;;;;;;19.74;52.81;101890.81;5141837;27;19919;-59
2023/07/07 08:47:19;;;;;;;;;;;;;;;19.76;52.81;101896.03;5147118;27;19972;-59
2023/07/07 08:49:50;;;;;;;;;;;;;;;19.78;52.84;101891.97;5139396;27;20397;-59
2023/07/07 08:52:26;;;;;;;;;;;;;;;19.82;52.96;101892.25;5141878;27;20232;-58
2023/07/07 08:54:58;;;;;;;;;;;;;;;19.83;52.73;101888.47;5140793;27;19919;-59
2023/07/07 08:57:28;;;;;;;;;;;;;;;19.86;52.70;101898.84;5139011;27;19920;-57
2023/07/07 09:00:00;;;;;;;;;;;;;;;19.88;52.62;101893.97;5129311;27;19924;-57
2023/07/07 09:02:42;;;;;;;;;;;;;;;19.91;52.85;101893.44;5140676;27;19976;-57
2023/07/07 09:05:22;;;;;;;;;;;;;;;19.94;52.90;101890.19;5147201;27;19919;-58
2023/07/07 09:07:57;;;;;;;;;;;;;;;19.98;52.87;101895.97;5144818;27;19927;-58
2023/07/07 09:10:36;;;;;;;;;;;;;;;20.01;52.74;101893.53;5137426;27;19937;-59
2023/07/07 09:13:06;;;;;;;;;;;;;;;20.05;52.65;101899.31;5139165;27;19923;-57
2023/07/07 09:15:36;;;;;;;;;;;;;;;20.08;52.58;101890.59;5136147;27;19924;-58
2023/07/07 09:18:07;;;;;;;;;;;;;;;20.11;52.65;101890.91;5146354;27;20376;-57
2023/07/07 09:20:37;;;;;;;;;;;;;;;20.16;52.26;101892.84;5137872;27;19919;-58
2023/07/07 09:23:07;;;;;;;;;;;;;;;20.19;52.21;101886.88;5143628;27;19920;-58
2023/07/07 09:25:38;;;;;;;;;;;;;;;20.24;52.05;101884.19;5141614;27;19920;-59
2023/07/07 09:28:17;;;;;;;;;;;;;;;20.32;52.05;101885.59;5138361;27;19919;-59
2023/07/07 09:30:47;;;;;;;;;;;;;;;20.37;52.06;101891.09;5140838;27;19920;-58
2023/07/07 09:33:16;;;;;;;;;;;;;;;20.40;52.15;101891.44;5144241;27;19919;-59
2023/07/07 09:35:59;;;;;;;;;;;;;;;20.43;52.02;101884.63;5139452;27;19919;-59
2023/07/07 09:38:33;;;;;;;;;;;;;;;20.46;52.02;101874.00;5136121;27;19940;-58
2023/07/07 09:41:08;;;;;;;;;;;;;;;20.52;51.73;101874.03;5132482;27;19919;-59
2023/07/07 09:43:41;;;;;;;;;;;;;;;20.54;51.66;101880.06;5146514;27;19919;-57
2023/07/07 09:46:23;;;;;;;;;;;;;;;20.57;51.56;101877.63;5138748;27;19925;-57
2023/07/07 09:48:54;;;;;;;;;;;;;;;20.60;51.47;101877.09;5142132;27;20022;-58
2023/07/07 09:51:26;;;;;;;;;;;;;;;20.64;51.05;101875.47;5146364;27;19980;-57
2023/07/07 09:53:55;;;;;;;;;;;;;;;20.66;50.88;101864.28;5143843;27;19941;-58
2023/07/07 09:56:24;;;;;;;;;;;;;;;20.71;50.95;101864.31;5134828;27;19923;-58
2023/07/07 09:58:55;;;;;;;;;;;;;;;20.73;50.60;101857.50;5145431;27;20287;-58
2023/07/07 10:01:27;;;;;;;;;;;;;;;20.77;50.67;101869.53;5133544;27;19919;-58
2023/07/07 10:04:28;;;;;;;;;;;;;;;20.86;50.35;101863.53;5133986;28;19945;-58
2023/07/07 10:07:16;;;;;;;;;;;;;;;20.90;50.28;101856.47;5146021;28;19977;-58
2023/07/07 10:09:45;;;;;;;;;;;;;;;20.93;50.16;101855.94;5144128;28;19919;-58
2023/07/07 10:12:14;;;;;;;;;;;;;;;20.97;50.35;101867.97;5131330;27;19927;-57
2023/07/07 10:14:55;;;;;;;;;;;;;;;21.03;50.49;101851.31;5146160;28;19926;-58
2023/07/07 10:17:28;;;;;;;;;;;;;;;21.10;50.36;101853.81;5145688;27;19927;-57
2023/07/07 10:19:57;;;;;;;;;;;;;;;21.15;50.29;101858.47;5141668;27;19979;-58
2023/07/07 10:22:25;;;;;;;;;;;;;;;21.20;50.38;101850.28;5134272;28;19941;-58
2023/07/07 10:24:53;;;;;;;;;;;;;;;21.25;50.43;101845.69;5141938;28;20353;-58
2023/07/07 10:27:22;;;;;;;;;;;;;;;21.32;50.25;101850.91;5147625;27;19919;-58
2023/07/07 10:29:50;;;;;;;;;;;;;;;21.36;50.40;101850.09;5146265;27;19924;-58
2023/07/07 10:32:19;;;;;;;;;;;;;;;21.38;49.89;101853.38;5146579;27;19920;-58
2023/07/07 10:34:48;;;;;;;;;;;;;;;21.41;50.25;101852.03;5149934;27;19968;-58
2023/07/07 10:37:17;;;;;;;;;;;;;;;21.50;50.03;101855.06;5140637;27;19919;-58
2023/07/07 10:39:49;;;;;;;;;;;;;;;21.53;49.56;101847.13;5147560;27;19931;-57
2023/07/07 10:42:20;;;;;;;;;;;;;;;21.57;49.85;101840.03;5149246;27;19927;-59
2023/07/07 10:44:47;;;;;;;;;;;;;;;21.65;50.12;101844.16;5137558;27;19980;-58
2023/07/07 10:47:19;;;;;;;;;;;;;;;21.71;49.83;101843.06;5149193;27;20433;-58
2023/07/07 10:50:12;;;;;;;;;;;;;;;21.76;48.93;101834.84;5146571;27;19958;-58
2023/07/07 10:52:47;;;;;;;;;;;;;;;21.80;49.14;101835.94;5146814;27;19919;-58
2023/07/07 10:55:22;;;;;;;;;;;;;;;21.90;49.66;101832.41;5142108;27;20018;-58
2023/07/07 10:57:56;;;;;;;;;;;;;;;21.99;49.32;101837.03;5137503;27;19926;-58
2023/07/07 11:00:31;;;;;;;;;;;;;;;22.07;49.11;101839.28;5149411;27;20014;-58
2023/07/07 11:03:25;;;;;;;;;;;;;;;22.14;48.87;101835.44;5140874;27;19919;-58
2023/07/07 11:05:57;;;;;;;;;;;;;;;22.21;48.98;101835.97;5136990;27;20414;-58
2023/07/07 11:08:37;;;;;;;;;;;;;;;22.24;47.94;101830.75;5145237;27;19994;-58
2023/07/07 11:11:18;;;;;;;;;;;;;;;22.32;49.37;101827.47;5146653;27;20021;-58
2023/07/07 11:14:04;;;;;;;;;;;;;;;22.42;49.77;101837.59;5148508;27;19919;-58
2023/07/07 11:16:39;;;;;;;;;;;;;;;22.54;44.79;101829.84;5128541;27;19919;-57
2023/07/07 11:19:15;;;;;;;;;;;;;;;22.67;47.38;101833.94;5134761;27;20455;-58
2023/07/07 11:21:49;;;;;;;;;;;;;;;22.79;47.46;101830.88;5134943;27;20559;-58
2023/07/07 11:24:20;;;;;;;;;;;;;;;22.86;47.87;101825.94;5134246;27;19927;-58
2023/07/07 11:27:23;;;;;;;;;;;;;;;22.93;47.98;101812.75;5138056;27;19923;-59
2023/07/07 11:29:55;;;;;;;;;;;;;;;22.96;47.47;101818.50;5137885;27;19919;-59
2023/07/07 11:32:28;;;;;;;;;;;;;;;22.99;48.00;101815.19;5134643;27;19941;-58
2023/07/07 11:35:12;;;;;;;;;;;;;;;23.06;48.54;101812.13;5137026;27;19919;-58
2023/07/07 11:37:47;;;;;;;;;;;;;;;23.14;48.82;101803.31;5135194;27;20375;-58
2023/07/07 11:40:22;;;;;;;;;;;;;;;23.23;48.59;101809.84;5136058;27;19920;-59
2023/07/07 11:43:01;;;;;;;;;;;;;;;23.34;48.43;101816.09;5132529;27;19919;-59
2023/07/07 11:45:33;;;;;;;;;;;;;;;23.42;47.95;101821.00;5143234;27;19919;-57
2023/07/07 11:48:13;;;;;;;;;;;;;;;23.47;47.90;101820.13;5135854;27;19934;-57
2023/07/07 11:50:51;;;;;;;;;;;;;;;23.51;47.90;101808.31;5136096;27;19920;-58
2023/07/07 11:53:26;;;;;;;;;;;;;;;23.58;48.14;101814.31;5143039;27;19996;-58
2023/07/07 11:56:00;;;;;;;;;;;;;;;23.59;47.67;101807.72;5137327;27;19919;-58
2023/07/07 11:58:33;;;;;;;;;;;;;;;23.54;45.84;101804.19;5142325;27;19948;-58
2023/07/07 12:01:08;;;;;;;;;;;;;;;23.57;47.41;101804.44;5135077;27;19920;-58
2023/07/07 12:03:42;;;;;;;;;;;;;;;23.59;47.95;101807.72;5133491;27;19927;-58
2023/07/07 12:06:15;;;;;;;;;;;;;;;23.63;47.44;101800.56;5137479;27;19961;-59
2023/07/07 12:08:47;;;;;;;;;;;;;;;23.63;45.82;101794.25;5148306;27;19925;-59
2023/07/07 12:11:15;;;;;;;;;;;;;;;23.63;45.95;101791.50;5144616;27;19920;-59
2023/07/07 12:13:57;;;;;;;;;;;;;;;23.67;46.73;101790.66;5148315;27;19923;-58
2023/07/07 12:16:27;;;;;;;;;;;;;;;23.75;47.25;101786.47;5146726;27;19919;-58
2023/07/07 12:19:01;;;;;;;;;;;;;;;23.85;47.71;101788.31;5133139;27;19986;-58
2023/07/07 12:21:32;;;;;;;;;;;;;;;23.87;45.84;101780.59;5148375;27;19925;-58
2023/07/07 12:24:02;;;;;;;;;;;;;;;23.92;46.70;101784.13;5147868;27;19923;-58
2023/07/07 12:26:33;;;;;;;;;;;;;;;23.99;47.60;101786.53;5139130;27;20379;-58
2023/07/07 12:29:04;;;;;;;;;;;;;;;24.04;47.19;101788.41;5145399;27;19931;-58
2023/07/07 12:31:32;;;;;;;;;;;;;;;24.07;46.93;101782.34;5135541;27;19920;-58
2023/07/07 12:34:18;;;;;;;;;;;;;;;24.11;46.95;101780.66;5139804;27;19919;-58
2023/07/07 12:36:47;;;;;;;;;;;;;;;24.14;47.58;101769.91;5139636;27;19926;-58
2023/07/07 12:39:15;;;;;;;;;;;;;;;24.15;46.79;101771.53;5143058;27;20030;-59
2023/07/07 12:41:42;;;;;;;;;;;;;;;24.13;44.31;101768.25;5136292;27;19923;-58
2023/07/07 12:44:11;;;;;;;;;;;;;;;24.15;43.52;101768.78;5147261;27;19919;-59
2023/07/07 12:46:39;;;;;;;;;;;;;;;24.21;46.18;101770.38;5147403;27;19919;-57
2023/07/07 12:49:17;;;;;;;;;;;;;;;24.29;46.67;101774.41;5142668;27;19931;-58
2023/07/07 12:51:45;;;;;;;;;;;;;;;24.33;45.90;101772.72;5141672;27;19920;-59